Time;durP1;ratioP1;P1;durP2;ratioP2;P2;SDS_P1;SDS_P2;PMS_P1;PMS_P2;Temp;Humidity;BMP_temperature;BMP_pressure;BME280_temperature;BME280_humidity;BME280_pressure;Samples;Min_cycle;Max_cycle;Signal;HPM_P1;HPM_P2
2023/01/01 00:01:08;;;;;;;24.67;7.70;;;;;;;15.17;56.19;100750.09;5024478;28;20025;-78
2023/01/01 00:03:33;;;;;;;19.15;7.53;;;;;;;15.14;56.28;100765.31;5007605;28;20061;-78
2023/01/01 00:06:05;;;;;;;24.88;7.65;;;;;;;15.28;55.02;100748.78;5005079;28;20042;-78
2023/01/01 00:08:31;;;;;;;24.08;6.50;;;;;;;15.10;55.51;100745.81;5011004;28;20114;-79
2023/01/01 00:11:02;;;;;;;13.48;6.45;;;;;;;15.11;55.62;100735.19;5008594;28;20041;-78
2023/01/01 00:13:28;;;;;;;18.27;7.47;;;;;;;15.12;55.18;100743.81;5027665;28;20061;-77
2023/01/01 00:15:54;;;;;;;23.48;8.48;;;;;;;15.23;54.86;100742.50;4990378;28;20037;-77
2023/01/01 00:18:19;;;;;;;23.92;7.95;;;;;;;15.12;55.41;100743.81;5024799;28;20037;-78
2023/01/01 00:20:45;;;;;;;28.13;8.48;;;;;;;15.15;54.78;100746.88;5004361;28;20068;-78
2023/01/01 00:23:11;;;;;;;27.70;11.10;;;;;;;15.21;54.07;100747.13;5013872;28;20408;-78
2023/01/01 00:25:39;;;;;;;24.27;9.75;;;;;;;15.19;54.62;100755.13;5010759;28;20033;-77
2023/01/01 00:28:04;;;;;;;26.73;10.25;;;;;;;15.24;53.46;100751.94;5006952;28;20079;-78
2023/01/01 00:30:30;;;;;;;24.48;9.32;;;;;;;15.31;52.89;100766.72;5024881;28;20048;-78
2023/01/01 00:32:55;;;;;;;21.92;8.85;;;;;;;15.24;52.88;100755.38;5005219;28;20052;-77
2023/01/01 00:35:21;;;;;;;24.75;9.00;;;;;;;15.25;53.15;100756.19;4991884;28;20041;-79
2023/01/01 00:37:47;;;;;;;16.50;6.30;;;;;;;15.21;52.60;100778.47;5009926;28;20091;-77
2023/01/01 00:40:12;;;;;;;16.33;6.68;;;;;;;15.24;52.46;100780.69;5010690;28;20033;-78
2023/01/01 00:42:40;;;;;;;10.40;4.85;;;;;;;15.17;51.89;100768.38;4994568;28;20413;-79
2023/01/01 00:45:06;;;;;;;16.52;5.72;;;;;;;15.11;52.73;100763.09;5026289;28;20037;-78
2023/01/01 00:47:32;;;;;;;12.45;3.88;;;;;;;15.04;52.89;100767.44;4994982;28;20026;-77
2023/01/01 00:49:57;;;;;;;14.35;4.32;;;;;;;15.02;52.38;100762.41;5010553;28;21939;-78
2023/01/01 00:52:22;;;;;;;11.07;3.50;;;;;;;14.95;52.24;100749.28;5008189;28;20037;-79
2023/01/01 00:54:48;;;;;;;14.40;2.90;;;;;;;14.96;52.22;100760.56;5007184;28;20048;-77
2023/01/01 00:57:14;;;;;;;15.52;2.70;;;;;;;14.99;51.67;100760.16;5010505;28;20816;-79
2023/01/01 00:59:40;;;;;;;15.65;3.30;;;;;;;14.98;51.98;100753.34;5012040;28;20029;-78
2023/01/01 01:02:06;;;;;;;9.32;2.13;;;;;;;15.03;51.91;100747.53;5026196;28;20033;-78
2023/01/01 01:04:31;;;;;;;8.50;2.20;;;;;;;14.96;51.98;100752.72;5009955;28;20496;-80
2023/01/01 01:06:57;;;;;;;7.55;2.40;;;;;;;14.88;51.30;100764.09;5008295;28;20046;-79
2023/01/01 01:09:22;;;;;;;6.88;1.88;;;;;;;14.88;51.48;100758.03;5011988;28;20032;-79
2023/01/01 01:11:48;;;;;;;8.05;2.00;;;;;;;14.91;51.18;100763.69;5009853;28;20649;-79
2023/01/01 01:14:13;;;;;;;9.55;2.10;;;;;;;14.90;50.93;100764.72;4994126;28;20056;-76
2023/01/01 01:16:39;;;;;;;11.73;1.80;;;;;;;14.77;51.23;100767.19;5024195;28;20448;-79
2023/01/01 01:19:06;;;;;;;5.82;1.67;;;;;;;14.77;51.21;100760.16;5014980;28;20048;-78
2023/01/01 01:21:33;;;;;;;6.10;1.90;;;;;;;14.74;51.01;100767.53;4904161;28;20042;-79
2023/01/01 01:24:00;;;;;;;10.25;2.30;;;;;;;14.72;50.91;100761.69;5024622;28;20033;-78
2023/01/01 01:26:28;;;;;;;6.70;1.77;;;;;;;14.72;50.91;100769.53;5010997;28;20050;-79
2023/01/01 01:28:54;;;;;;;8.00;1.80;;;;;;;14.71;50.90;100773.13;5009798;28;20044;-79
2023/01/01 01:31:22;;;;;;;7.05;2.25;;;;;;;14.79;50.47;100778.25;5015720;28;20509;-79
2023/01/01 01:33:48;;;;;;;5.07;1.73;;;;;;;14.77;50.77;100775.00;5028845;28;20038;-79
2023/01/01 01:36:15;;;;;;;8.63;1.95;;;;;;;14.76;50.82;100782.00;5011569;28;20120;-77
2023/01/01 01:38:41;;;;;;;13.48;1.90;;;;;;;14.64;51.14;100799.16;5013207;28;20052;-78
2023/01/01 01:41:07;;;;;;;5.43;1.60;;;;;;;14.72;50.73;100799.03;5017464;28;20494;-79
2023/01/01 01:43:33;;;;;;;8.95;1.48;;;;;;;14.73;51.04;100792.00;5014332;28;20426;-79
2023/01/01 01:46:05;;;;;;;8.52;1.85;;;;;;;14.67;51.38;100787.53;5030705;28;20095;-77
2023/01/01 01:48:45;;;;;;;6.93;1.40;;;;;;;14.60;51.12;100796.09;5033632;28;20035;-78
2023/01/01 01:51:14;;;;;;;5.63;2.20;;;;;;;14.58;51.13;100808.50;5010316;28;20072;-77
2023/01/01 01:53:49;;;;;;;9.85;1.55;;;;;;;14.58;51.51;100807.72;5013795;28;20033;-78
2023/01/01 01:56:22;;;;;;;10.75;2.05;;;;;;;14.53;51.01;100797.78;5013513;28;20044;-78
2023/01/01 01:58:48;;;;;;;5.53;1.58;;;;;;;14.49;51.84;100795.72;5013567;28;20029;-77
2023/01/01 02:01:14;;;;;;;4.75;1.38;;;;;;;14.53;51.47;100796.97;5030276;28;20045;-79
2023/01/01 02:03:50;;;;;;;6.90;1.73;;;;;;;14.41;52.03;100804.47;4997964;28;20512;-77
2023/01/01 02:06:18;;;;;;;6.35;1.55;;;;;;;14.47;51.45;100818.56;5028148;28;20050;-78
2023/01/01 02:08:44;;;;;;;7.72;1.63;;;;;;;14.54;51.32;100794.19;5014093;28;20022;-78
2023/01/01 02:11:10;;;;;;;4.82;1.23;;;;;;;14.57;51.55;100803.47;5029914;28;20042;-75
2023/01/01 02:13:37;;;;;;;6.60;1.33;;;;;;;14.52;51.63;100805.78;5013118;28;20116;-79
2023/01/01 02:16:19;;;;;;;5.80;1.60;;;;;;;14.48;52.05;100807.94;5016847;28;20045;-78
2023/01/01 02:18:54;;;;;;;7.28;1.77;;;;;;;14.53;51.19;100813.44;5029192;28;20037;-78
2023/01/01 02:21:29;;;;;;;7.30;1.90;;;;;;;14.48;51.99;100810.53;5030320;28;20497;-78
2023/01/01 02:24:40;;;;;;;8.02;2.72;;;;;;;14.42;52.35;100803.44;5013895;28;20091;-78
2023/01/01 02:27:19;;;;;;;3.40;1.20;;;;;;;14.39;52.15;100804.63;5019797;28;20041;-76
2023/01/01 02:29:54;;;;;;;4.47;1.25;;;;;;;14.40;52.88;100814.06;4993715;28;20043;-78
2023/01/01 02:32:28;;;;;;;12.95;2.60;;;;;;;14.35;52.74;100805.16;5021182;28;20048;-77
2023/01/01 02:35:34;;;;;;;5.97;1.20;;;;;;;14.32;52.89;100795.91;5010577;28;20115;-78
2023/01/01 02:38:17;;;;;;;6.63;1.15;;;;;;;14.21;53.47;100804.97;4991414;28;20041;-79
2023/01/01 02:40:50;;;;;;;6.38;1.27;;;;;;;14.24;53.58;100808.22;5012340;28;20041;-79
2023/01/01 02:43:15;;;;;;;;;;;;;;;14.16;53.66;100804.69;4996589;28;20041;-78
2023/01/01 02:45:41;;;;;;;10.27;1.45;;;;;;;14.20;53.43;100803.38;5018272;28;20000;-77
2023/01/01 02:48:38;;;;;;;3.83;1.30;;;;;;;14.30;53.49;100791.88;5030645;28;20091;-78
2023/01/01 02:51:13;;;;;;;6.57;1.58;;;;;;;14.18;54.14;100800.16;5030161;28;20573;-78
2023/01/01 02:53:58;;;;;;;3.05;1.30;;;;;;;14.15;54.44;100810.91;5026471;28;20486;-78
2023/01/01 02:56:50;;;;;;;10.82;1.55;;;;;;;14.17;54.15;100805.53;5010514;28;20045;-78
2023/01/01 03:02:44;;;;;;;10.60;1.65;;;;;;;14.15;54.74;100818.75;5024826;28;20080;-78
2023/01/01 03:05:15;;;;;;;4.15;1.27;;;;;;;14.19;54.85;100827.81;5024248;28;20045;-78
2023/01/01 03:07:49;;;;;;;13.13;2.03;;;;;;;14.15;54.63;100825.75;5005067;28;20099;-77
2023/01/01 03:10:16;;;;;;;8.38;1.65;;;;;;;14.19;55.00;100827.81;5024077;28;20041;-79
2023/01/01 03:13:00;;;;;;;3.92;1.20;;;;;;;14.25;54.50;100828.91;5008974;28;20029;-78
2023/01/01 03:15:33;;;;;;;10.75;1.38;;;;;;;14.14;55.45;100830.16;5024683;28;20060;-78
2023/01/01 03:17:59;;;;;;;11.63;1.85;;;;;;;14.20;54.94;100834.66;5004532;28;20033;-77
2023/01/01 03:20:32;;;;;;;6.63;1.73;;;;;;;14.11;55.66;100838.34;5002788;28;20124;-78
2023/01/01 03:23:00;;;;;;;;;;;;;;;14.00;56.44;100836.97;5026815;28;20033;-80
2023/01/01 03:25:31;;;;;;;8.35;2.20;;;;;;;14.15;55.42;100834.38;5009179;28;19925;-79
2023/01/01 03:28:03;;;;;;;4.70;1.23;;;;;;;14.12;55.76;100850.38;5014184;28;20104;-78
2023/01/01 03:30:34;;;;;;;5.35;1.60;;;;;;;14.09;55.72;100848.16;5007064;28;20120;-78
2023/01/01 03:33:09;;;;;;;9.00;1.40;;;;;;;14.11;56.12;100848.78;5008070;28;20423;-78
2023/01/01 03:35:45;;;;;;;8.57;1.52;;;;;;;14.00;56.32;100847.41;5010555;28;20043;-78
2023/01/01 03:38:23;;;;;;;5.03;1.67;;;;;;;14.06;56.65;100856.31;5030154;28;20064;-77
2023/01/01 03:40:52;;;;;;;3.13;1.40;;;;;;;14.00;57.15;100851.81;5022518;28;20038;-78
2023/01/01 03:43:33;;;;;;;6.88;1.40;;;;;;;14.00;57.25;100838.78;5003534;28;20110;-78
2023/01/01 03:46:01;;;;;;;5.97;1.70;;;;;;;14.14;56.78;100848.41;5024155;28;20071;-78
2023/01/01 03:48:26;;;;;;;4.18;1.70;;;;;;;14.10;57.47;100844.53;5011059;28;20045;-80
2023/01/01 03:51:14;;;;;;;7.00;1.60;;;;;;;14.10;57.15;100859.38;5025553;28;20057;-79
2023/01/01 03:53:41;;;;;;;6.60;1.55;;;;;;;14.09;57.68;100873.38;5027802;28;20120;-79
2023/01/01 03:56:38;;;;;;;8.57;1.70;;;;;;;14.01;57.95;100869.91;4990624;28;20041;-79
2023/01/01 03:59:28;;;;;;;7.75;1.23;;;;;;;14.18;57.26;100867.94;5027591;28;20025;-77
2023/01/01 04:01:57;;;;;;;10.05;1.52;;;;;;;14.04;58.69;100860.91;5009260;28;20066;-78
2023/01/01 04:04:25;;;;;;;6.57;1.60;;;;;;;13.98;59.26;100864.22;4997299;28;20057;-79
2023/01/01 04:06:51;;;;;;;16.52;1.77;;;;;;;14.18;58.75;100857.50;5013787;28;20217;-79
2023/01/01 04:09:23;;;;;;;7.95;1.63;;;;;;;14.12;58.84;100852.19;5010494;28;20070;-78
2023/01/01 04:12:02;;;;;;;7.05;1.73;;;;;;;14.04;59.41;100858.28;5003180;28;20515;-78
2023/01/01 04:14:34;;;;;;;3.22;1.30;;;;;;;14.10;58.64;100860.19;5010217;28;20045;-79
2023/01/01 04:17:00;;;;;;;4.57;1.10;;;;;;;14.03;59.77;100869.69;5017422;28;20040;-76
2023/01/01 04:19:26;;;;;;;8.45;1.50;;;;;;;13.96;59.98;100866.19;5008628;28;20500;-78
2023/01/01 04:21:51;;;;;;;4.53;1.48;;;;;;;13.99;59.80;100884.91;5012537;28;20068;-77
2023/01/01 04:24:17;;;;;;;7.85;1.25;;;;;;;14.02;59.55;100870.69;4995772;28;20033;-77
2023/01/01 04:26:42;;;;;;;4.65;1.70;;;;;;;13.93;60.10;100877.75;5009952;28;20048;-79
2023/01/01 04:29:07;;;;;;;5.38;1.33;;;;;;;13.96;60.32;100874.00;5025282;28;20025;-79
2023/01/01 04:31:34;;;;;;;10.60;1.63;;;;;;;13.92;60.56;100870.13;5010595;28;20040;-79
2023/01/01 04:34:00;;;;;;;6.57;1.52;;;;;;;13.93;60.62;100876.97;5025661;28;20037;-78
2023/01/01 04:36:26;;;;;;;4.75;1.30;;;;;;;13.93;61.04;100875.16;5005370;28;20033;-81
2023/01/01 04:38:51;;;;;;;12.35;1.45;;;;;;;13.91;61.20;100878.94;5028870;28;20050;-76
2023/01/01 04:41:17;;;;;;;5.78;1.92;;;;;;;14.00;60.97;100886.50;5008437;28;20190;-78
2023/01/01 04:43:49;;;;;;;9.80;1.70;;;;;;;13.91;61.47;100886.75;5009384;28;20033;-78
2023/01/01 04:46:15;;;;;;;7.75;1.48;;;;;;;13.91;61.50;100886.75;5022727;28;20136;-79
2023/01/01 04:48:41;;;;;;;7.70;1.30;;;;;;;13.85;62.35;100893.47;5010362;28;20026;-80
2023/01/01 04:51:08;;;;;;;10.20;1.90;;;;;;;13.88;61.79;100887.09;5007870;28;20110;-78
2023/01/01 04:53:34;;;;;;;4.40;1.50;;;;;;;13.93;62.02;100876.97;5010992;28;20172;-78
2023/01/01 04:56:07;;;;;;;6.80;1.30;;;;;;;13.92;61.46;100877.94;5011583;28;20033;-79
2023/01/01 04:58:34;;;;;;;7.35;1.65;;;;;;;13.81;62.33;100892.22;4996240;28;20091;-78
2023/01/01 05:01:00;;;;;;;7.05;1.55;;;;;;;13.85;61.95;100884.84;5009090;28;20384;-77
2023/01/01 05:03:26;;;;;;;6.28;1.67;;;;;;;13.88;61.63;100874.91;5011443;28;20128;-78
2023/01/01 05:06:18;;;;;;;8.52;1.90;;;;;;;13.87;62.16;100864.63;5011862;28;20056;-78
2023/01/01 05:08:45;;;;;;;8.90;1.70;;;;;;;13.85;61.76;100866.63;5003086;28;20402;-78
2023/01/01 05:11:16;;;;;;;7.43;1.20;;;;;;;13.82;61.85;100867.75;5007617;28;20068;-77
2023/01/01 05:13:44;;;;;;;8.65;1.58;;;;;;;13.79;62.11;100874.13;5000994;28;20045;-76
2023/01/01 05:16:13;;;;;;;5.32;1.40;;;;;;;13.82;62.30;100871.19;5010713;28;20040;-78
2023/01/01 05:18:39;;;;;;;6.15;1.65;;;;;;;13.86;61.80;100887.25;5009361;28;20034;-78
2023/01/01 05:21:14;;;;;;;9.10;1.27;;;;;;;13.82;62.18;100888.59;5023290;28;20029;-78
2023/01/01 05:23:40;;;;;;;3.05;1.20;;;;;;;13.82;62.23;100892.03;5010453;28;20080;-78
2023/01/01 05:26:14;;;;;;;8.15;1.75;;;;;;;13.89;62.08;100901.75;5025084;28;20041;-76
2023/01/01 05:28:40;;;;;;;4.15;1.20;;;;;;;13.85;61.80;100905.72;4994442;28;20034;-79
2023/01/01 05:31:14;;;;;;;11.38;1.50;;;;;;;13.76;62.81;100918.78;5023277;28;20041;-79
2023/01/01 05:33:40;;;;;;;7.18;1.25;;;;;;;13.82;62.28;100906.84;5024297;28;20025;-78
2023/01/01 05:36:08;;;;;;;5.30;1.85;;;;;;;13.74;62.83;100917.34;5011633;28;20037;-79
2023/01/01 05:38:34;;;;;;;5.70;1.30;;;;;;;13.67;62.94;100927.63;5012295;28;20037;-79
2023/01/01 05:41:06;;;;;;;5.30;1.77;;;;;;;13.80;62.58;100937.50;5024206;28;20033;-78
2023/01/01 05:43:31;;;;;;;7.50;1.10;;;;;;;13.71;63.19;100941.97;5024987;28;20093;-79
2023/01/01 05:46:09;;;;;;;2.45;1.20;;;;;;;13.71;63.45;100928.94;5021933;28;20743;-78
2023/01/01 05:48:35;;;;;;;4.38;1.27;;;;;;;13.78;64.49;100934.25;5028294;28;20033;-79
2023/01/01 05:51:10;;;;;;;6.45;1.50;;;;;;;13.76;64.99;100921.38;5005212;28;20127;-79
2023/01/01 05:53:35;;;;;;;8.20;1.48;;;;;;;13.66;65.58;100939.06;5014399;28;20045;-78
2023/01/01 05:56:01;;;;;;;5.63;1.38;;;;;;;13.67;65.67;100945.06;5007901;28;20041;-79
2023/01/01 05:58:28;;;;;;;3.72;1.50;;;;;;;13.60;65.59;100963.19;5026544;28;20504;-78
2023/01/01 06:00:54;;;;;;;5.45;1.20;;;;;;;13.62;65.11;100964.66;5025234;28;20041;-78
2023/01/01 06:03:20;;;;;;;8.25;2.03;;;;;;;13.59;65.83;100967.59;5012889;28;20445;-78
2023/01/01 06:05:46;;;;;;;9.70;1.35;;;;;;;13.55;65.62;100962.91;4991289;28;20064;-79
2023/01/01 06:08:11;;;;;;;7.40;1.20;;;;;;;13.74;65.36;100969.47;5010359;28;20029;-79
2023/01/01 06:10:37;;;;;;;4.93;1.33;;;;;;;13.67;nan;100971.13;5011400;28;20059;-78
2023/01/01 06:13:03;;;;;;;7.65;2.00;;;;;;;13.58;65.78;100979.00;5028671;28;20036;-78
2023/01/01 06:15:28;;;;;;;4.95;1.25;;;;;;;13.59;65.43;100979.81;5025489;28;20041;-77
2023/01/01 06:17:54;;;;;;;6.65;1.40;;;;;;;13.57;65.63;100960.94;5013497;28;20069;-77
2023/01/01 06:20:19;;;;;;;4.95;1.00;;;;;;;13.65;65.75;100983.53;5012612;28;20049;-78
2023/01/01 06:22:45;;;;;;;7.07;1.40;;;;;;;13.59;65.93;100983.22;5014010;28;20033;-78
2023/01/01 06:25:10;;;;;;;8.07;2.25;;;;;;;13.55;66.16;100988.94;5026565;28;20037;-79
2023/01/01 06:27:36;;;;;;;8.00;1.30;;;;;;;13.52;66.25;100997.91;5012801;28;20038;-79
2023/01/01 06:30:03;;;;;;;6.32;1.40;;;;;;;13.51;66.29;101001.50;5009544;28;20111;-78
2023/01/01 06:32:28;;;;;;;9.50;2.70;;;;;;;13.62;66.01;100995.91;5014192;28;20079;-78
2023/01/01 06:34:54;;;;;;;8.27;1.30;;;;;;;13.67;65.86;101012.81;5012275;28;20045;-77
2023/01/01 06:37:19;;;;;;;5.68;1.40;;;;;;;13.66;65.85;101014.63;5029260;28;20038;-77
2023/01/01 06:39:45;;;;;;;6.18;1.27;;;;;;;13.62;65.97;101021.97;5007495;28;20040;-79
2023/01/01 06:42:10;;;;;;;9.20;1.90;;;;;;;13.53;66.51;101020.38;5022961;28;20068;-78
2023/01/01 06:44:37;;;;;;;9.60;1.63;;;;;;;13.59;66.47;101006.66;4997884;28;20033;-78
2023/01/01 06:47:02;;;;;;;4.88;1.10;;;;;;;13.62;67.10;101011.53;5012540;28;20645;-78
2023/01/01 06:49:28;;;;;;;8.57;1.30;;;;;;;13.55;67.65;101022.81;4993233;28;20030;-76
2023/01/01 06:51:53;;;;;;;10.75;2.50;;;;;;;13.55;67.62;101035.84;5007674;28;20030;-77
2023/01/01 06:54:19;;;;;;;7.32;1.50;;;;;;;13.65;67.15;101026.00;5010208;28;20033;-78
2023/01/01 06:56:44;;;;;;;9.10;2.55;;;;;;;13.68;67.07;101027.47;5021118;28;20126;-77
2023/01/01 06:59:10;;;;;;;6.05;1.95;;;;;;;13.61;67.33;101027.34;4996199;28;20040;-78
2023/01/01 07:01:38;;;;;;;5.18;1.88;;;;;;;13.63;66.99;101041.00;5009759;28;20441;-79
2023/01/01 07:04:07;;;;;;;7.90;1.50;;;;;;;13.71;66.92;101047.97;4993458;28;20083;-78
2023/01/01 07:06:33;;;;;;;5.13;1.75;;;;;;;13.66;67.00;101042.47;5008317;28;20041;-79
2023/01/01 07:09:00;;;;;;;5.15;1.70;;;;;;;13.50;67.83;101058.97;5026686;28;20394;-79
2023/01/01 07:11:27;;;;;;;4.45;1.40;;;;;;;13.51;67.91;101064.03;5006627;28;20429;-78
2023/01/01 07:13:54;;;;;;;6.15;1.30;;;;;;;13.52;68.13;101059.63;5009772;28;20045;-77
2023/01/01 07:16:20;;;;;;;5.43;1.30;;;;;;;13.53;67.89;101077.69;5007524;28;20048;-78
2023/01/01 07:18:47;;;;;;;8.25;1.90;;;;;;;13.47;69.25;101082.75;5021636;28;20041;-78
2023/01/01 07:21:27;;;;;;;7.72;1.98;;;;;;;13.58;69.90;101090.19;5004827;28;20049;-78
2023/01/01 07:23:55;;;;;;;7.70;1.48;;;;;;;13.42;70.81;101086.66;5024562;28;20116;-78
2023/01/01 07:26:22;;;;;;;9.68;1.90;;;;;;;13.33;71.85;101100.69;5010312;28;20033;-78
2023/01/01 07:28:48;;;;;;;12.60;1.83;;;;;;;13.27;72.86;101093.53;5026182;28;20029;-78
2023/01/01 07:31:13;;;;;;;10.98;1.70;;;;;;;13.34;72.96;101089.31;5004933;28;20383;-77
2023/01/01 07:33:39;;;;;;;11.27;1.90;;;;;;;13.25;74.30;101087.66;5028212;28;20029;-77
2023/01/01 07:36:05;;;;;;;11.63;2.45;;;;;;;13.21;75.04;101094.19;5030072;28;20060;-77
2023/01/01 07:38:30;;;;;;;13.70;2.75;;;;;;;13.12;75.55;101106.41;5010579;28;20033;-78
2023/01/01 07:40:56;;;;;;;11.13;2.05;;;;;;;13.05;76.12;101108.88;5012727;28;20026;-77
2023/01/01 07:43:21;;;;;;;10.68;1.77;;;;;;;12.98;77.14;101120.91;5011858;28;20595;-78
2023/01/01 07:45:47;;;;;;;9.93;1.70;;;;;;;13.07;76.62;101116.50;5012427;28;20076;-77
2023/01/01 07:48:14;;;;;;;8.90;1.50;;;;;;;12.98;77.40;101123.50;5013817;28;20074;-78
2023/01/01 07:50:40;;;;;;;7.07;1.90;;;;;;;12.97;77.36;101118.47;5012064;28;20041;-77
2023/01/01 07:53:06;;;;;;;11.98;2.00;;;;;;;12.92;77.36;101123.34;5028258;28;20698;-77
2023/01/01 07:55:32;;;;;;;11.15;2.78;;;;;;;12.87;77.40;101131.66;5010862;28;20033;-79
2023/01/01 07:57:58;;;;;;;10.48;1.88;;;;;;;12.96;77.36;101145.47;5024890;28;20175;-77
2023/01/01 08:00:24;;;;;;;7.20;1.67;;;;;;;12.87;77.71;101149.88;5029038;28;20037;-77
2023/01/01 08:02:49;;;;;;;6.22;1.52;;;;;;;12.91;78.21;101140.75;5027338;28;20478;-78
2023/01/01 08:05:15;;;;;;;6.05;1.85;;;;;;;12.93;77.38;101136.19;5022930;28;20065;-77
2023/01/01 08:07:47;;;;;;;12.05;2.05;;;;;;;12.91;77.83;101150.34;5007238;28;20091;-79
2023/01/01 08:10:13;;;;;;;4.50;1.50;;;;;;;12.90;78.15;101162.53;5028175;28;20029;-75
2023/01/01 08:12:38;;;;;;;8.02;2.13;;;;;;;12.87;77.70;101165.47;5027338;28;20029;-77
2023/01/01 08:15:04;;;;;;;11.48;1.98;;;;;;;12.87;77.84;101156.88;5005716;28;20044;-78
2023/01/01 08:17:30;;;;;;;8.52;1.65;;;;;;;12.85;78.09;101159.63;5009274;28;20038;-77
2023/01/01 08:19:56;;;;;;;7.05;1.88;;;;;;;12.95;77.37;101144.66;4996891;28;20501;-78
2023/01/01 08:22:21;;;;;;;6.10;1.70;;;;;;;12.87;78.05;101149.06;5011340;28;20038;-77
2023/01/01 08:24:47;;;;;;;7.68;1.90;;;;;;;12.83;78.14;101148.56;5008288;28;20048;-78
2023/01/01 08:27:14;;;;;;;7.80;2.53;;;;;;;12.97;77.50;101139.28;5026795;28;20030;-78
2023/01/01 08:29:40;;;;;;;6.68;1.90;;;;;;;12.92;77.88;101141.56;5032287;28;20033;-79
2023/01/01 08:32:05;;;;;;;18.05;2.55;;;;;;;12.98;77.99;101166.97;4992869;28;20045;-78
2023/01/01 08:34:30;;;;;;;13.25;2.15;;;;;;;12.95;77.94;101177.69;5026897;28;20037;-76
2023/01/01 08:36:56;;;;;;;10.30;1.65;;;;;;;12.82;78.60;101183.34;4992724;28;20041;-78
2023/01/01 08:39:21;;;;;;;4.85;1.75;;;;;;;12.95;77.41;101199.31;5010147;28;20033;-80
2023/01/01 08:41:47;;;;;;;10.93;1.63;;;;;;;12.89;77.83;101205.16;5006869;28;20593;-78
2023/01/01 08:44:12;;;;;;;5.97;1.27;;;;;;;12.87;78.20;101206.31;5007582;28;20037;-79
2023/01/01 08:46:38;;;;;;;7.15;2.80;;;;;;;12.81;78.66;101208.56;5022932;28;20048;-78
2023/01/01 08:49:03;;;;;;;5.80;1.60;;;;;;;12.82;78.45;101207.59;5014849;28;20037;-79
2023/01/01 08:51:28;;;;;;;8.80;1.75;;;;;;;12.85;78.20;101209.06;5026013;28;20134;-79
2023/01/01 08:53:54;;;;;;;7.38;1.90;;;;;;;12.88;78.39;101215.72;5025475;28;20109;-78
2023/01/01 08:56:19;;;;;;;8.38;1.65;;;;;;;12.82;78.22;101219.78;5023701;28;20052;-79
2023/01/01 08:58:45;;;;;;;6.35;1.65;;;;;;;12.87;77.83;101224.53;5020124;28;20037;-79
2023/01/01 09:01:10;;;;;;;12.35;2.50;;;;;;;12.81;79.03;101231.19;5021117;28;20047;-78
2023/01/01 09:03:36;;;;;;;6.57;1.60;;;;;;;12.88;78.20;101239.16;5016982;28;20044;-78
2023/01/01 09:06:02;;;;;;;8.07;2.00;;;;;;;12.99;78.01;101244.84;5012645;28;20083;-78
2023/01/01 09:08:27;;;;;;;7.43;2.25;;;;;;;12.94;77.83;101248.91;5012672;28;20037;-78
2023/01/01 09:10:58;;;;;;;9.98;1.48;;;;;;;12.97;77.72;101259.81;5010140;28;20032;-78
2023/01/01 09:13:23;;;;;;;9.23;2.00;;;;;;;12.98;77.44;101245.84;5022588;28;20034;-78
2023/01/01 09:15:49;;;;;;;6.00;1.90;;;;;;;13.00;78.20;101263.91;5011887;28;20107;-79
2023/01/01 09:18:14;;;;;;;11.77;2.03;;;;;;;12.95;77.97;101264.38;5012143;28;20037;-79
2023/01/01 09:20:40;;;;;;;10.18;1.80;;;;;;;13.04;77.43;101265.22;5015248;28;20053;-79
2023/01/01 09:23:06;;;;;;;11.30;1.70;;;;;;;13.01;77.53;101263.72;5027740;28;20037;-78
2023/01/01 09:25:32;;;;;;;10.38;2.00;;;;;;;12.99;78.30;101263.09;5014567;28;20049;-79
2023/01/01 09:28:07;;;;;;;7.60;2.30;;;;;;;13.09;77.60;101254.31;5012895;28;20017;-78
2023/01/01 09:30:33;;;;;;;8.90;2.33;;;;;;;13.04;77.94;101260.81;5007923;28;20045;-79
2023/01/01 09:33:00;;;;;;;6.00;1.48;;;;;;;13.11;77.88;101263.59;4998351;28;20478;-78
2023/01/01 09:35:26;;;;;;;12.15;2.20;;;;;;;13.19;76.99;101281.03;5008445;28;20189;-78
2023/01/01 09:37:52;;;;;;;9.18;2.28;;;;;;;13.20;77.55;101277.44;5031182;28;20096;-78
2023/01/01 09:40:36;;;;;;;12.80;2.42;;;;;;;13.15;77.75;101275.31;5028444;28;20094;-79
2023/01/01 09:43:04;;;;;;;6.28;2.15;;;;;;;13.05;78.21;101267.66;5026724;28;20080;-79
2023/01/01 09:45:39;;;;;;;9.05;1.75;;;;;;;13.11;77.92;101266.22;5025174;28;20571;-78
2023/01/01 09:48:12;;;;;;;10.38;1.98;;;;;;;13.14;78.51;101285.91;5025491;28;20052;-77
2023/01/01 09:50:40;;;;;;;6.35;2.00;;;;;;;13.12;78.57;101285.25;5011432;28;20072;-76
2023/01/01 09:53:17;;;;;;;14.07;2.33;;;;;;;13.18;78.28;101310.63;5032175;28;20640;-78
2023/01/01 09:55:55;;;;;;;4.45;1.58;;;;;;;13.15;78.15;101306.56;5029734;28;20430;-79
2023/01/01 09:58:25;;;;;;;5.78;1.92;;;;;;;13.08;78.73;101307.38;5014384;28;20046;-78
2023/01/01 10:00:58;;;;;;;10.27;1.65;;;;;;;13.11;78.65;101300.06;5014113;28;20109;-78
2023/01/01 10:03:39;;;;;;;9.60;3.13;;;;;;;13.01;78.66;101294.97;5032014;28;20040;-78
2023/01/01 10:06:15;;;;;;;9.68;2.70;;;;;;;13.07;78.94;101295.31;5032593;28;20091;-78
2023/01/01 10:08:53;;;;;;;8.90;1.65;;;;;;;13.07;78.56;101293.50;5028802;28;20445;-78
2023/01/01 10:11:35;;;;;;;11.63;1.63;;;;;;;13.22;78.16;101293.69;5024864;28;20045;-78
2023/01/01 10:14:13;;;;;;;8.32;1.67;;;;;;;13.11;78.62;101276.63;5030309;28;20037;-78
2023/01/01 10:16:44;;;;;;;8.90;1.88;;;;;;;13.24;77.99;101270.91;5031933;28;20036;-79
2023/01/01 10:19:19;;;;;;;6.97;1.73;;;;;;;13.18;78.04;101277.59;5038412;28;20108;-77
2023/01/01 10:21:48;;;;;;;10.70;1.58;;;;;;;13.24;77.48;101286.53;5013899;28;20098;-78
2023/01/01 10:24:22;;;;;;;6.68;2.00;;;;;;;13.25;77.66;101290.78;5019121;28;20029;-78
2023/01/01 10:26:52;;;;;;;6.22;2.33;;;;;;;13.27;77.26;101288.03;4998500;28;20107;-77
2023/01/01 10:29:25;;;;;;;12.85;2.20;;;;;;;13.19;77.68;101279.22;4998504;28;20042;-78
2023/01/01 10:31:54;;;;;;;8.00;2.08;;;;;;;13.28;77.04;101282.66;5023167;28;20053;-79
2023/01/01 10:34:25;;;;;;;12.32;2.53;;;;;;;13.31;77.78;101276.34;5028220;28;20038;-77
2023/01/01 10:36:54;;;;;;;23.23;8.43;;;;;;;13.32;76.74;101275.38;5012258;28;20049;-79
2023/01/01 10:39:20;;;;;;;10.02;1.70;;;;;;;13.29;77.15;101268.66;5031572;28;20053;-79
2023/01/01 10:41:47;;;;;;;13.88;4.57;;;;;;;13.30;77.40;101269.47;5015339;28;20041;-79
2023/01/01 10:44:16;;;;;;;13.77;3.40;;;;;;;13.34;77.21;101269.00;5033808;28;20029;-79
2023/01/01 10:46:55;;;;;;;11.60;3.60;;;;;;;13.31;77.31;101264.13;5010660;28;20141;-79
2023/01/01 10:49:20;;;;;;;8.85;1.67;;;;;;;13.41;76.87;101259.56;5031513;28;20120;-78
2023/01/01 10:51:48;;;;;;;7.70;2.28;;;;;;;13.46;76.91;101266.09;5012529;28;20717;-80
2023/01/01 10:54:36;;;;;;;12.70;2.47;;;;;;;13.49;76.81;101284.81;5031792;28;20084;-79
2023/01/01 10:57:15;;;;;;;9.82;1.67;;;;;;;13.44;76.42;101277.47;5028512;28;20042;-79
2023/01/01 10:59:43;;;;;;;12.68;2.40;;;;;;;13.54;76.35;101271.28;5010732;28;20045;-78
2023/01/01 11:02:24;;;;;;;12.27;1.90;;;;;;;13.52;75.90;101274.03;5011165;28;20041;-79
2023/01/01 11:04:50;;;;;;;10.57;2.08;;;;;;;13.48;76.22;101272.75;5013389;28;20103;-79
2023/01/01 11:07:29;;;;;;;10.90;3.17;;;;;;;13.48;76.53;101277.16;5014852;28;20041;-79
2023/01/01 11:10:03;;;;;;;10.73;2.20;;;;;;;13.54;76.54;101286.91;5015530;28;20045;-78
2023/01/01 11:12:33;;;;;;;10.57;2.65;;;;;;;13.52;76.11;101300.09;5032068;28;20043;-79
2023/01/01 11:14:59;;;;;;;9.18;2.38;;;;;;;13.53;76.16;101293.13;4993193;28;20053;-80
2023/01/01 11:17:27;;;;;;;9.85;2.40;;;;;;;13.52;76.40;101304.50;5017965;28;20045;-79
2023/01/01 11:19:53;;;;;;;13.75;2.70;;;;;;;13.61;75.78;101306.94;5011654;28;20065;-80
2023/01/01 11:22:41;;;;;;;8.65;2.35;;;;;;;13.59;75.53;101308.91;5025778;28;20033;-80
2023/01/01 11:25:25;;;;;;;7.78;2.88;;;;;;;13.71;76.09;101314.63;5026477;28;20444;-80
2023/01/01 11:27:52;;;;;;;7.90;1.90;;;;;;;13.75;75.44;101308.09;5033664;28;20225;-80
2023/01/01 11:30:28;;;;;;;10.38;1.92;;;;;;;13.80;74.86;101320.63;5020748;28;20113;-79
2023/01/01 11:32:59;;;;;;;9.88;3.15;;;;;;;13.80;75.20;101324.03;5031037;28;20026;-80
2023/01/01 11:35:28;;;;;;;7.85;1.92;;;;;;;13.80;74.63;101324.03;5027754;28;20041;-79
2023/01/01 11:37:56;;;;;;;10.95;1.58;;;;;;;13.81;74.80;101328.28;5014032;28;20041;-80